sensor_id;sensor_type;location;lat;lon;timestamp;temperature;humidity
19385;DHT22;9828;54.122;17.974;2023-09-19T00:12:58;21.40;99.90
19385;DHT22;9828;54.122;17.974;2023-09-19T00:29:05;21.20;1.00
19385;DHT22;9828;54.122;17.974;2023-09-19T00:34:31;21.20;1.00
19385;DHT22;9828;54.122;17.974;2023-09-19T00:39:55;21.20;1.00
19385;DHT22;9828;54.122;17.974;2023-09-19T00:45:17;21.10;1.00
19385;DHT22;9828;54.122;17.974;2023-09-19T00:50:41;21.10;99.90
19385;DHT22;9828;54.122;17.974;2023-09-19T00:56:04;20.90;99.90
19385;DHT22;9828;54.122;17.974;2023-09-19T01:01:28;20.90;94.00
19385;DHT22;9828;54.122;17.974;2023-09-19T01:06:50;20.90;64.80
19385;DHT22;9828;54.122;17.974;2023-09-19T01:12:16;20.80;44.80
19385;DHT22;9828;54.122;17.974;2023-09-19T01:17:53;20.80;99.90
19385;DHT22;9828;54.122;17.974;2023-09-19T01:34:18;20.50;99.90
19385;DHT22;9828;54.122;17.974;2023-09-19T01:39:40;20.30;81.30
19385;DHT22;9828;54.122;17.974;2023-09-19T01:45:14;20.20;1.00
19385;DHT22;9828;54.122;17.974;2023-09-19T01:50:58;20.10;99.90
19385;DHT22;9828;54.122;17.974;2023-09-19T01:56:31;20.00;1.00
19385;DHT22;9828;54.122;17.974;2023-09-19T02:01:54;19.90;1.00
19385;DHT22;9828;54.122;17.974;2023-09-19T02:07:17;20.00;99.90
19385;DHT22;9828;54.122;17.974;2023-09-19T02:12:38;19.90;99.90
19385;DHT22;9828;54.122;17.974;2023-09-19T02:18:00;19.90;1.00
19385;DHT22;9828;54.122;17.974;2023-09-19T02:23:21;19.80;99.90
19385;DHT22;9828;54.122;17.974;2023-09-19T02:28:43;19.80;1.00
19385;DHT22;9828;54.122;17.974;2023-09-19T02:34:04;19.70;99.90
19385;DHT22;9828;54.122;17.974;2023-09-19T02:39:27;19.70;1.00
19385;DHT22;9828;54.122;17.974;2023-09-19T02:44:49;19.60;1.00
19385;DHT22;9828;54.122;17.974;2023-09-19T02:50:11;19.60;98.60
19385;DHT22;9828;54.122;17.974;2023-09-19T02:55:33;19.60;1.00
19385;DHT22;9828;54.122;17.974;2023-09-19T03:00:55;19.60;88.60
19385;DHT22;9828;54.122;17.974;2023-09-19T03:06:17;19.60;99.90
19385;DHT22;9828;54.122;17.974;2023-09-19T03:17:04;19.50;99.90
19385;DHT22;9828;54.122;17.974;2023-09-19T03:22:27;19.50;99.90
19385;DHT22;9828;54.122;17.974;2023-09-19T03:27:49;19.50;99.90
19385;DHT22;9828;54.122;17.974;2023-09-19T03:33:12;19.40;99.90
19385;DHT22;9828;54.122;17.974;2023-09-19T03:38:35;19.40;99.90
19385;DHT22;9828;54.122;17.974;2023-09-19T03:43:57;19.30;1.00
19385;DHT22;9828;54.122;17.974;2023-09-19T03:49:18;19.30;1.00
19385;DHT22;9828;54.122;17.974;2023-09-19T03:54:40;19.30;1.00
19385;DHT22;9828;54.122;17.974;2023-09-19T04:00:04;19.20;1.00
19385;DHT22;9828;54.122;17.974;2023-09-19T04:05:33;19.20;1.00
19385;DHT22;9828;54.122;17.974;2023-09-19T04:10:54;19.10;1.00
19385;DHT22;9828;54.122;17.974;2023-09-19T04:16:16;19.20;1.00
19385;DHT22;9828;54.122;17.974;2023-09-19T04:27:02;19.00;1.00
19385;DHT22;9828;54.122;17.974;2023-09-19T04:32:23;19.00;1.00
19385;DHT22;9828;54.122;17.974;2023-09-19T06:46:46;19.20;1.00
19385;DHT22;9828;54.122;17.974;2023-09-19T06:52:11;19.30;1.00
19385;DHT22;9828;54.122;17.974;2023-09-19T06:57:33;19.40;1.00
19385;DHT22;9828;54.122;17.974;2023-09-19T07:02:59;19.40;99.90
19385;DHT22;9828;54.122;17.974;2023-09-19T07:08:22;19.40;99.90
19385;DHT22;9828;54.122;17.974;2023-09-19T07:13:43;19.40;99.90
19385;DHT22;9828;54.122;17.974;2023-09-19T07:19:05;19.60;99.90
19385;DHT22;9828;54.122;17.974;2023-09-19T07:24:27;19.70;99.00
19385;DHT22;9828;54.122;17.974;2023-09-19T07:29:50;19.80;99.90
19385;DHT22;9828;54.122;17.974;2023-09-19T07:35:13;19.80;1.00
19385;DHT22;9828;54.122;17.974;2023-09-19T07:40:35;20.10;99.90
19385;DHT22;9828;54.122;17.974;2023-09-19T07:45:57;20.30;99.90
19385;DHT22;9828;54.122;17.974;2023-09-19T07:51:22;20.20;1.00
19385;DHT22;9828;54.122;17.974;2023-09-19T07:56:44;20.00;1.00
19385;DHT22;9828;54.122;17.974;2023-09-19T08:02:06;20.00;1.00
19385;DHT22;9828;54.122;17.974;2023-09-19T08:07:30;21.20;99.90
19385;DHT22;9828;54.122;17.974;2023-09-19T08:12:52;22.30;1.00
19385;DHT22;9828;54.122;17.974;2023-09-19T08:18:19;22.50;99.90
19385;DHT22;9828;54.122;17.974;2023-09-19T08:23:43;23.60;1.00
19385;DHT22;9828;54.122;17.974;2023-09-19T08:29:05;23.80;99.90
19385;DHT22;9828;54.122;17.974;2023-09-19T08:34:33;23.20;1.00
19385;DHT22;9828;54.122;17.974;2023-09-19T08:39:55;23.20;1.00
19385;DHT22;9828;54.122;17.974;2023-09-19T08:45:17;22.90;1.00
19385;DHT22;9828;54.122;17.974;2023-09-19T08:50:43;22.80;1.00
19385;DHT22;9828;54.122;17.974;2023-09-19T08:56:09;22.40;99.90
19385;DHT22;9828;54.122;17.974;2023-09-19T09:01:32;21.70;99.90
19385;DHT22;9828;54.122;17.974;2023-09-19T09:06:54;21.80;1.00
19385;DHT22;9828;54.122;17.974;2023-09-19T09:12:16;23.60;99.90
19385;DHT22;9828;54.122;17.974;2023-09-19T09:17:38;23.60;99.90
19385;DHT22;9828;54.122;17.974;2023-09-19T09:23:00;22.90;99.90
19385;DHT22;9828;54.122;17.974;2023-09-19T09:28:26;22.20;99.90
19385;DHT22;9828;54.122;17.974;2023-09-19T09:33:55;21.80;1.00
19385;DHT22;9828;54.122;17.974;2023-09-19T09:39:30;22.00;99.90
19385;DHT22;9828;54.122;17.974;2023-09-19T09:45:16;22.90;99.90
19385;DHT22;9828;54.122;17.974;2023-09-19T09:50:38;23.20;99.90
19385;DHT22;9828;54.122;17.974;2023-09-19T09:56:07;22.60;99.90
19385;DHT22;9828;54.122;17.974;2023-09-19T10:01:46;22.70;99.90
19385;DHT22;9828;54.122;17.974;2023-09-19T10:07:10;22.90;99.90
19385;DHT22;9828;54.122;17.974;2023-09-19T10:12:47;22.40;99.90
19385;DHT22;9828;54.122;17.974;2023-09-19T10:18:10;21.90;99.90
19385;DHT22;9828;54.122;17.974;2023-09-19T10:23:40;23.00;99.90
19385;DHT22;9828;54.122;17.974;2023-09-19T10:39:52;27.30;99.90
19385;DHT22;9828;54.122;17.974;2023-09-19T10:45:16;27.30;99.90
19385;DHT22;9828;54.122;17.974;2023-09-19T10:50:58;26.90;99.90
19385;DHT22;9828;54.122;17.974;2023-09-19T10:56:29;25.90;99.90
19385;DHT22;9828;54.122;17.974;2023-09-19T11:01:55;24.60;1.00
19385;DHT22;9828;54.122;17.974;2023-09-19T11:07:20;24.30;99.90
19385;DHT22;9828;54.122;17.974;2023-09-19T11:29:31;24.10;99.90
19385;DHT22;9828;54.122;17.974;2023-09-19T11:35:06;23.80;99.90
19385;DHT22;9828;54.122;17.974;2023-09-19T11:40:30;23.40;99.90
19385;DHT22;9828;54.122;17.974;2023-09-19T11:51:21;22.90;99.90
19385;DHT22;9828;54.122;17.974;2023-09-19T11:56:52;23.30;99.90
19385;DHT22;9828;54.122;17.974;2023-09-19T12:02:36;23.30;99.90
19385;DHT22;9828;54.122;17.974;2023-09-19T12:07:59;23.20;99.90
19385;DHT22;9828;54.122;17.974;2023-09-19T12:13:21;23.40;99.90
19385;DHT22;9828;54.122;17.974;2023-09-19T12:18:44;25.20;99.90
19385;DHT22;9828;54.122;17.974;2023-09-19T12:24:12;26.50;99.90
19385;DHT22;9828;54.122;17.974;2023-09-19T12:29:50;27.30;99.90
19385;DHT22;9828;54.122;17.974;2023-09-19T12:35:33;27.40;99.90
19385;DHT22;9828;54.122;17.974;2023-09-19T12:40:57;27.50;99.90
19385;DHT22;9828;54.122;17.974;2023-09-19T12:46:23;27.00;99.90
19385;DHT22;9828;54.122;17.974;2023-09-19T12:51:47;25.30;99.90
19385;DHT22;9828;54.122;17.974;2023-09-19T12:57:23;24.40;99.90
19385;DHT22;9828;54.122;17.974;2023-09-19T13:08:40;25.70;99.90
19385;DHT22;9828;54.122;17.974;2023-09-19T13:19:43;25.70;99.90
19385;DHT22;9828;54.122;17.974;2023-09-19T13:25:08;25.90;99.90
19385;DHT22;9828;54.122;17.974;2023-09-19T13:30:37;25.90;99.90
19385;DHT22;9828;54.122;17.974;2023-09-19T13:36:03;26.00;99.90
19385;DHT22;9828;54.122;17.974;2023-09-19T13:41:26;25.50;99.90
19385;DHT22;9828;54.122;17.974;2023-09-19T13:46:48;25.30;99.90
19385;DHT22;9828;54.122;17.974;2023-09-19T13:52:10;25.40;99.90
19385;DHT22;9828;54.122;17.974;2023-09-19T13:57:34;24.50;99.90
19385;DHT22;9828;54.122;17.974;2023-09-19T14:08:17;23.20;99.90
19385;DHT22;9828;54.122;17.974;2023-09-19T14:13:39;22.90;99.90
19385;DHT22;9828;54.122;17.974;2023-09-19T14:19:01;23.10;99.90
19385;DHT22;9828;54.122;17.974;2023-09-19T14:24:23;23.20;99.90
19385;DHT22;9828;54.122;17.974;2023-09-19T14:29:45;23.30;99.90
19385;DHT22;9828;54.122;17.974;2023-09-19T14:35:07;23.20;99.90
19385;DHT22;9828;54.122;17.974;2023-09-19T14:40:31;23.00;99.90
19385;DHT22;9828;54.122;17.974;2023-09-19T14:45:52;22.90;99.90
19385;DHT22;9828;54.122;17.974;2023-09-19T14:51:14;22.70;99.90
19385;DHT22;9828;54.122;17.974;2023-09-19T15:01:58;22.20;1.00
19385;DHT22;9828;54.122;17.974;2023-09-19T15:07:20;21.90;99.90
19385;DHT22;9828;54.122;17.974;2023-09-19T15:12:42;21.80;99.90
19385;DHT22;9828;54.122;17.974;2023-09-19T15:18:04;21.90;99.90
19385;DHT22;9828;54.122;17.974;2023-09-19T15:23:26;21.80;99.90
19385;DHT22;9828;54.122;17.974;2023-09-19T15:34:10;21.50;99.90
19385;DHT22;9828;54.122;17.974;2023-09-19T15:39:35;21.30;99.90
19385;DHT22;9828;54.122;17.974;2023-09-19T15:44:58;21.20;99.90
19385;DHT22;9828;54.122;17.974;2023-09-19T15:50:19;21.10;99.90
19385;DHT22;9828;54.122;17.974;2023-09-19T15:55:43;20.90;99.90
19385;DHT22;9828;54.122;17.974;2023-09-19T16:01:06;20.70;99.90
19385;DHT22;9828;54.122;17.974;2023-09-19T16:06:31;20.70;99.90
19385;DHT22;9828;54.122;17.974;2023-09-19T16:11:52;20.60;1.00
19385;DHT22;9828;54.122;17.974;2023-09-19T16:17:14;20.60;1.00
19385;DHT22;9828;54.122;17.974;2023-09-19T16:22:36;20.50;1.00
19385;DHT22;9828;54.122;17.974;2023-09-19T16:27:57;20.40;99.90
19385;DHT22;9828;54.122;17.974;2023-09-19T16:38:42;20.10;99.90
19385;DHT22;9828;54.122;17.974;2023-09-19T16:44:04;20.00;99.90
19385;DHT22;9828;54.122;17.974;2023-09-19T16:49:30;19.90;99.90
19385;DHT22;9828;54.122;17.974;2023-09-19T17:00:14;19.60;99.90
19385;DHT22;9828;54.122;17.974;2023-09-19T17:05:39;19.50;99.90
19385;DHT22;9828;54.122;17.974;2023-09-19T17:11:05;19.30;99.90
19385;DHT22;9828;54.122;17.974;2023-09-19T17:16:34;19.20;99.90
19385;DHT22;9828;54.122;17.974;2023-09-19T17:21:56;19.20;99.90
19385;DHT22;9828;54.122;17.974;2023-09-19T17:27:18;19.00;99.90
19385;DHT22;9828;54.122;17.974;2023-09-19T17:32:39;18.90;99.90
19385;DHT22;9828;54.122;17.974;2023-09-19T17:43:24;18.70;99.90
19385;DHT22;9828;54.122;17.974;2023-09-19T17:48:48;18.60;99.90
19385;DHT22;9828;54.122;17.974;2023-09-19T17:54:10;18.60;99.90
19385;DHT22;9828;54.122;17.974;2023-09-19T17:59:31;18.50;99.90
19385;DHT22;9828;54.122;17.974;2023-09-19T18:04:52;18.40;99.90
19385;DHT22;9828;54.122;17.974;2023-09-19T18:10:14;18.30;99.90
19385;DHT22;9828;54.122;17.974;2023-09-19T18:15:36;18.30;99.90
19385;DHT22;9828;54.122;17.974;2023-09-19T18:21:00;18.20;99.90
19385;DHT22;9828;54.122;17.974;2023-09-19T18:26:22;18.10;99.90
19385;DHT22;9828;54.122;17.974;2023-09-19T18:31:44;18.00;99.90
19385;DHT22;9828;54.122;17.974;2023-09-19T18:37:06;17.80;99.90
19385;DHT22;9828;54.122;17.974;2023-09-19T18:42:28;17.80;99.90
19385;DHT22;9828;54.122;17.974;2023-09-19T18:47:50;17.70;99.90
19385;DHT22;9828;54.122;17.974;2023-09-19T18:53:12;17.60;99.90
19385;DHT22;9828;54.122;17.974;2023-09-19T18:58:34;17.60;99.90
19385;DHT22;9828;54.122;17.974;2023-09-19T19:03:56;17.50;99.90
19385;DHT22;9828;54.122;17.974;2023-09-19T19:09:17;17.40;99.90
19385;DHT22;9828;54.122;17.974;2023-09-19T19:14:40;17.30;99.90
19385;DHT22;9828;54.122;17.974;2023-09-19T19:20:06;17.20;99.90
19385;DHT22;9828;54.122;17.974;2023-09-19T19:25:28;17.20;99.90
19385;DHT22;9828;54.122;17.974;2023-09-19T19:30:50;17.20;99.90
19385;DHT22;9828;54.122;17.974;2023-09-19T19:36:12;17.10;99.90
19385;DHT22;9828;54.122;17.974;2023-09-19T19:41:35;17.00;99.90
19385;DHT22;9828;54.122;17.974;2023-09-19T19:52:21;16.70;99.90
19385;DHT22;9828;54.122;17.974;2023-09-19T19:57:45;16.70;99.90
19385;DHT22;9828;54.122;17.974;2023-09-19T20:03:07;16.70;99.90
19385;DHT22;9828;54.122;17.974;2023-09-19T20:08:28;16.60;99.90
19385;DHT22;9828;54.122;17.974;2023-09-19T20:13:50;16.60;1.00
19385;DHT22;9828;54.122;17.974;2023-09-19T20:24:35;16.40;99.90
19385;DHT22;9828;54.122;17.974;2023-09-19T20:29:58;16.40;99.90
19385;DHT22;9828;54.122;17.974;2023-09-19T20:35:19;16.40;99.90
19385;DHT22;9828;54.122;17.974;2023-09-19T20:40:41;16.40;99.90
19385;DHT22;9828;54.122;17.974;2023-09-19T20:46:04;16.40;99.90
19385;DHT22;9828;54.122;17.974;2023-09-19T20:51:26;16.40;99.90
19385;DHT22;9828;54.122;17.974;2023-09-19T20:56:48;16.40;99.90
19385;DHT22;9828;54.122;17.974;2023-09-19T21:02:11;16.40;99.90
19385;DHT22;9828;54.122;17.974;2023-09-19T21:07:33;16.40;99.90
19385;DHT22;9828;54.122;17.974;2023-09-19T21:12:54;16.40;99.90
19385;DHT22;9828;54.122;17.974;2023-09-19T21:18:16;16.40;99.90
19385;DHT22;9828;54.122;17.974;2023-09-19T21:23:38;16.40;99.90
19385;DHT22;9828;54.122;17.974;2023-09-19T21:29:00;16.30;99.90
19385;DHT22;9828;54.122;17.974;2023-09-19T21:34:22;16.30;99.90
19385;DHT22;9828;54.122;17.974;2023-09-19T21:39:44;16.30;99.90
19385;DHT22;9828;54.122;17.974;2023-09-19T21:45:05;16.20;99.90
19385;DHT22;9828;54.122;17.974;2023-09-19T21:50:27;16.20;99.90
19385;DHT22;9828;54.122;17.974;2023-09-19T21:55:57;16.10;99.90
19385;DHT22;9828;54.122;17.974;2023-09-19T22:01:18;16.10;99.90
19385;DHT22;9828;54.122;17.974;2023-09-19T22:06:44;16.00;99.90
19385;DHT22;9828;54.122;17.974;2023-09-19T22:12:05;15.90;99.90
19385;DHT22;9828;54.122;17.974;2023-09-19T22:17:28;15.90;99.90
19385;DHT22;9828;54.122;17.974;2023-09-19T22:22:49;15.90;99.90
19385;DHT22;9828;54.122;17.974;2023-09-19T22:28:13;15.80;1.00
19385;DHT22;9828;54.122;17.974;2023-09-19T22:33:37;15.70;1.00
19385;DHT22;9828;54.122;17.974;2023-09-19T22:39:00;15.80;99.90
19385;DHT22;9828;54.122;17.974;2023-09-19T22:44:25;15.80;99.90
19385;DHT22;9828;54.122;17.974;2023-09-19T23:17:01;15.60;1.00
19385;DHT22;9828;54.122;17.974;2023-09-19T23:22:25;15.50;1.00
19385;DHT22;9828;54.122;17.974;2023-09-19T23:43:59;15.50;1.00
19385;DHT22;9828;54.122;17.974;2023-09-19T23:49:22;15.20;99.90
19385;DHT22;9828;54.122;17.974;2023-09-19T23:54:43;15.40;99.90
